Terminal Aerodrome Forecast
Issued by NWS Wilmington, OH

Current Version | Previous Version | Graphics & Text | Print | Product List | Glossary On
Versions: 1 2 3 4 5 6 7 8 9 10 11 12 13 14 15 16 17 18 19 20 21 22 23 24 25 26 27 28 29
000
FTUS41 KILN 240500
TAFDAY
TAF
KDAY 240540Z 2406/2506 17015G25KT P6SM -SHRA SCT008 OVC012
      TEMPO 2406/2408 5SM -SHRA BKN008 OVC015
     FM240800 22017G35KT P6SM VCSH BKN008 OVC012
     FM241100 19018G32KT P6SM VCSH SCT015 OVC025
      TEMPO 2415/2417 24023G36KT 5SM -SHRA BR OVC015
     FM241700 25017G27KT P6SM OVC028=

USA.gov is the U.S. government's official web portal to all federal, state and local government web resources and services.